Time;durP1;ratioP1;P1;durP2;ratioP2;P2;SDS_P1;SDS_P2;PMS_P1;PMS_P2;Temp;Humidity;BMP_temperature;BMP_pressure;BME280_temperature;BME280_humidity;BME280_pressure;Samples;Min_cycle;Max_cycle;Signal;HPM_P1;HPM_P2
2024/03/21 00:01:22;;;;;;;;;;;;;;;;;;4409098;32;19949;-76
2024/03/21 00:03:47;;;;;;;;;;;;;;;;;;4421627;32;20344;-76
2024/03/21 00:06:12;;;;;;;;;;;;;;;;;;4420072;32;19949;-77
2024/03/21 00:08:37;;;;;;;;;;;;;;;;;;4407104;32;19972;-76
2024/03/21 00:11:02;;;;;;;;;;;;;;;;;;4420851;32;20340;-76
2024/03/21 00:13:28;;;;;;;;;;;;;;;;;;4407071;32;19969;-76
2024/03/21 00:15:53;;;;;;;;;;;;;;;;;;4420988;32;19990;-75
2024/03/21 00:18:18;;;;;;;;;;;;;;;;;;4421528;32;20288;-76
2024/03/21 00:20:43;;;;;;;;;;;;;;;;;;4421650;32;20367;-75
2024/03/21 00:23:08;;;;;;;;;;;;;;;;;;4421001;32;19991;-75
2024/03/21 00:25:33;;;;;;;;;;;;;;;;;;4421510;32;19941;-76
2024/03/21 00:27:59;;;;;;;;;;;;;;;;;;4406829;32;19941;-75
2024/03/21 00:30:24;;;;;;;;;;;;;;;;;;4408173;32;20279;-75
2024/03/21 00:32:49;;;;;;;;;;;;;;;;;;4420744;32;19949;-77
2024/03/21 00:35:15;;;;;;;;;;;;;;;;;;4422666;32;19969;-75
2024/03/21 00:37:40;;;;;;;;;;;;;;;;;;4421631;32;19952;-76
2024/03/21 00:40:05;;;;;;;;;;;;;;;;;;4421933;32;19973;-75
2024/03/21 00:42:30;;;;;;;;;;;;;;;;;;4409624;32;19981;-76
2024/03/21 00:44:55;;;;;;;;;;;;;;;;;;4420450;32;19937;-76
2024/03/21 00:47:21;;;;;;;;;;;;;;;;;;4413333;32;19951;-75
2024/03/21 00:49:46;;;;;;;;;;;;;;;;;;4396551;32;19940;-76
2024/03/21 00:52:11;;;;;;;;;;;;;;;;;;4393002;32;19994;-75
2024/03/21 00:54:36;;;;;;;;;;;;;;;;;;4406803;32;19960;-75
2024/03/21 00:57:01;;;;;;;;;;;;;;;;;;4407683;32;19980;-76
2024/03/21 00:59:27;;;;;;;;;;;;;;;;;;4406641;32;19961;-75
2024/03/21 01:01:52;;;;;;;;;;;;;;;;;;4404990;32;20001;-75
2024/03/21 01:04:17;;;;;;;;;;;;;;;;;;4391011;32;20321;-75
2024/03/21 01:06:43;;;;;;;;;;;;;;;;;;4406034;32;20378;-75
2024/03/21 01:09:08;;;;;;;;;;;;;;;;;;4405032;32;20026;-76
2024/03/21 01:11:34;;;;;;;;;;;;;;;;;;4404867;32;19941;-76
2024/03/21 01:13:59;;;;;;;;;;;;;;;;;;4404826;32;19965;-76
2024/03/21 01:16:25;;;;;;;;;;;;;;;;;;4406818;32;19937;-76
2024/03/21 01:18:50;;;;;;;;;;;;;;;;;;4413954;32;20347;-75
2024/03/21 01:21:16;;;;;;;;;;;;;;;;;;4406137;32;20293;-76
2024/03/21 01:23:41;;;;;;;;;;;;;;;;;;4406147;32;19941;-76
2024/03/21 01:26:06;;;;;;;;;;;;;;;;;;4406457;32;19945;-76
2024/03/21 01:28:31;;;;;;;;;;;;;;;;;;4405869;32;20060;-77
2024/03/21 01:30:59;;;;;;;;;;;;;;;;;;4406171;32;20362;-76
2024/03/21 01:33:25;;;;;;;;;;;;;;;;;;4419716;32;19956;-77
2024/03/21 01:35:50;;;;;;;;;;;;;;;;;;4421655;32;20004;-75
2024/03/21 01:38:15;;;;;;;;;;;;;;;;;;4405751;32;19945;-76
2024/03/21 01:40:41;;;;;;;;;;;;;;;;;;4405454;32;19958;-77
2024/03/21 01:43:06;;;;;;;;;;;;;;;;;;4404604;32;19946;-76
2024/03/21 01:45:32;;;;;;;;;;;;;;;;;;4405975;32;20263;-76
2024/03/21 01:48:02;;;;;;;;;;;;;;;;;;4421070;32;19969;-76
2024/03/21 01:50:28;;;;;;;;;;;;;;;;;;4426238;32;19956;-76
2024/03/21 01:52:53;;;;;;;;;;;;;;;;;;4403841;32;20008;-74
2024/03/21 01:55:19;;;;;;;;;;;;;;;;;;4408951;32;19991;-75
2024/03/21 01:57:44;;;;;;;;;;;;;;;;;;4394412;32;19989;-75
2024/03/21 02:00:09;;;;;;;;;;;;;;;;;;4421055;32;19984;-77
2024/03/21 02:02:34;;;;;;;;;;;;;;;;;;4412447;32;19937;-75
2024/03/21 02:05:00;;;;;;;;;;;;;;;;;;4393273;32;19933;-75
2024/03/21 02:07:26;;;;;;;;;;;;;;;;;;4393643;32;19952;-75
2024/03/21 02:09:51;;;;;;;;;;;;;;;;;;4394572;32;19942;-75
2024/03/21 02:12:16;;;;;;;;;;;;;;;;;;4390766;32;19957;-76
2024/03/21 02:14:41;;;;;;;;;;;;;;;;;;4391726;32;20307;-76
2024/03/21 02:17:06;;;;;;;;;;;;;;;;;;4392193;32;19942;-76
2024/03/21 02:19:32;;;;;;;;;;;;;;;;;;4393644;32;19942;-76
2024/03/21 02:24:41;;;;;;;;;;;;;;;;;;4390740;32;19953;-76
2024/03/21 02:27:06;;;;;;;;;;;;;;;;;;4381725;32;19946;-75
2024/03/21 02:29:31;;;;;;;;;;;;;;;;;;4384926;32;19946;-76
2024/03/21 02:31:57;;;;;;;;;;;;;;;;;;4378547;32;19961;-75
2024/03/21 02:34:22;;;;;;;;;;;;;;;;;;4376609;32;20365;-76
2024/03/21 02:36:47;;;;;;;;;;;;;;;;;;4375666;32;19934;-76
2024/03/21 02:39:12;;;;;;;;;;;;;;;;;;4376342;32;19964;-75
2024/03/21 02:41:37;;;;;;;;;;;;;;;;;;4379141;32;19937;-75
2024/03/21 02:44:02;;;;;;;;;;;;;;;;;;4390307;32;20311;-76
2024/03/21 02:46:27;;;;;;;;;;;;;;;;;;4391577;32;19975;-75
2024/03/21 02:48:52;;;;;;;;;;;;;;;;;;4392791;32;19949;-74
2024/03/21 02:51:18;;;;;;;;;;;;;;;;;;4391774;32;19946;-75
2024/03/21 02:53:43;;;;;;;;;;;;;;;;;;4391288;32;19938;-76
2024/03/21 02:56:08;;;;;;;;;;;;;;;;;;4392251;32;19986;-76
2024/03/21 02:58:33;;;;;;;;;;;;;;;;;;4393220;32;19934;-76
2024/03/21 03:00:58;;;;;;;;;;;;;;;;;;4392787;32;19951;-75
2024/03/21 03:03:23;;;;;;;;;;;;;;;;;;4392749;32;19942;-75
2024/03/21 03:05:48;;;;;;;;;;;;;;;;;;4391459;32;19957;-76
2024/03/21 03:08:13;;;;;;;;;;;;;;;;;;4391767;32;19969;-76
2024/03/21 03:10:39;;;;;;;;;;;;;;;;;;4391033;32;19992;-75
2024/03/21 03:13:04;;;;;;;;;;;;;;;;;;4409936;32;19951;-76
2024/03/21 03:15:29;;;;;;;;;;;;;;;;;;4410344;32;20286;-76
2024/03/21 03:17:54;;;;;;;;;;;;;;;;;;4423123;32;19945;-74
2024/03/21 03:20:19;;;;;;;;;;;;;;;;;;4422681;32;19933;-75
2024/03/21 03:22:44;;;;;;;;;;;;;;;;;;4408374;32;20282;-74
2024/03/21 03:25:09;;;;;;;;;;;;;;;;;;4422546;32;19973;-77
2024/03/21 03:27:35;;;;;;;;;;;;;;;;;;4409343;32;20013;-75
2024/03/21 03:30:00;;;;;;;;;;;;;;;;;;4422922;32;19936;-74
2024/03/21 03:32:25;;;;;;;;;;;;;;;;;;4407989;32;20054;-75
2024/03/21 03:37:34;;;;;;;;;;;;;;;;;;4421443;32;19978;-76
2024/03/21 03:39:59;;;;;;;;;;;;;;;;;;4421608;32;19973;-76
2024/03/21 03:42:24;;;;;;;;;;;;;;;;;;4421170;32;19941;-76
2024/03/21 03:44:49;;;;;;;;;;;;;;;;;;4421474;32;19976;-76
2024/03/21 03:47:14;;;;;;;;;;;;;;;;;;4421238;32;19967;-76
2024/03/21 03:49:39;;;;;;;;;;;;;;;;;;4421990;32;20001;-76
2024/03/21 03:52:05;;;;;;;;;;;;;;;;;;4420699;32;19941;-76
2024/03/21 03:54:30;;;;;;;;;;;;;;;;;;4421369;32;20346;-76
2024/03/21 03:56:55;;;;;;;;;;;;;;;;;;4411495;32;19945;-76
2024/03/21 03:59:20;;;;;;;;;;;;;;;;;;4426905;32;20285;-75
2024/03/21 04:01:46;;;;;;;;;;;;;;;;;;4408684;32;19941;-76
2024/03/21 04:04:11;;;;;;;;;;;;;;;;;;4421338;32;20342;-75
2024/03/21 04:06:37;;;;;;;;;;;;;;;;;;4420953;32;20375;-76
2024/03/21 04:09:04;;;;;;;;;;;;;;;;;;4420799;32;19970;-75
2024/03/21 04:11:29;;;;;;;;;;;;;;;;;;4422375;32;19992;-76
2024/03/21 04:13:54;;;;;;;;;;;;;;;;;;4394837;32;19963;-75
2024/03/21 04:16:19;;;;;;;;;;;;;;;;;;4415394;32;20007;-76
2024/03/21 04:18:44;;;;;;;;;;;;;;;;;;4421860;32;19982;-76
2024/03/21 04:21:10;;;;;;;;;;;;;;;;;;4420698;32;20239;-75
2024/03/21 04:23:35;;;;;;;;;;;;;;;;;;4421575;32;19947;-75
2024/03/21 04:26:00;;;;;;;;;;;;;;;;;;4421654;32;19990;-75
2024/03/21 04:28:25;;;;;;;;;;;;;;;;;;4406233;32;19937;-75
2024/03/21 04:30:51;;;;;;;;;;;;;;;;;;4420218;32;20280;-76
2024/03/21 04:33:16;;;;;;;;;;;;;;;;;;4403403;32;20285;-74
2024/03/21 04:35:41;;;;;;;;;;;;;;;;;;4412358;32;19950;-75
2024/03/21 04:38:07;;;;;;;;;;;;;;;;;;4418292;32;19940;-76
2024/03/21 04:40:32;;;;;;;;;;;;;;;;;;4392910;32;20290;-74
2024/03/21 04:42:57;;;;;;;;;;;;;;;;;;4405060;32;19956;-75
2024/03/21 04:45:22;;;;;;;;;;;;;;;;;;4406350;32;19952;-74
2024/03/21 04:47:48;;;;;;;;;;;;;;;;;;4406635;32;20271;-74
2024/03/21 04:50:13;;;;;;;;;;;;;;;;;;4404882;32;19960;-75
2024/03/21 04:52:39;;;;;;;;;;;;;;;;;;4391295;32;20019;-74
2024/03/21 04:55:04;;;;;;;;;;;;;;;;;;4406741;32;19941;-75
2024/03/21 04:57:29;;;;;;;;;;;;;;;;;;4405336;32;20001;-76
2024/03/21 04:59:54;;;;;;;;;;;;;;;;;;4421192;32;19933;-76
2024/03/21 05:02:19;;;;;;;;;;;;;;;;;;4407913;32;20010;-75
2024/03/21 05:04:45;;;;;;;;;;;;;;;;;;4411607;32;19946;-77
2024/03/21 05:07:10;;;;;;;;;;;;;;;;;;4405674;32;20019;-75
2024/03/21 05:09:35;;;;;;;;;;;;;;;;;;4405708;32;19941;-76
2024/03/21 05:12:01;;;;;;;;;;;;;;;;;;4406040;32;19948;-77
2024/03/21 05:14:28;;;;;;;;;;;;;;;;;;4404266;32;19937;-76
2024/03/21 05:16:53;;;;;;;;;;;;;;;;;;4406313;32;19929;-77
2024/03/21 05:19:18;;;;;;;;;;;;;;;;;;4421695;32;20387;-75
2024/03/21 05:21:43;;;;;;;;;;;;;;;;;;4420116;32;19948;-76
2024/03/21 05:24:08;;;;;;;;;;;;;;;;;;4420293;32;19937;-76
2024/03/21 05:26:33;;;;;;;;;;;;;;;;;;4419770;32;20266;-76
2024/03/21 05:28:59;;;;;;;;;;;;;;;;;;4397380;32;19942;-75
2024/03/21 05:31:24;;;;;;;;;;;;;;;;;;4407355;32;20056;-75
2024/03/21 05:33:49;;;;;;;;;;;;;;;;;;4394408;32;19977;-75
2024/03/21 05:36:14;;;;;;;;;;;;;;;;;;4409311;32;19937;-75
2024/03/21 05:38:39;;;;;;;;;;;;;;;;;;4393509;32;19992;-75
2024/03/21 05:41:04;;;;;;;;;;;;;;;;;;4393817;32;19938;-75
2024/03/21 05:43:29;;;;;;;;;;;;;;;;;;4407988;32;20349;-75
2024/03/21 05:45:54;;;;;;;;;;;;;;;;;;4407669;32;19971;-75
2024/03/21 05:48:20;;;;;;;;;;;;;;;;;;4409841;32;19937;-73
2024/03/21 05:50:45;;;;;;;;;;;;;;;;;;4422080;32;19956;-75
2024/03/21 05:53:10;;;;;;;;;;;;;;;;;;4409125;32;19951;-75
2024/03/21 05:55:35;;;;;;;;;;;;;;;;;;4406175;32;19945;-75
2024/03/21 05:58:00;;;;;;;;;;;;;;;;;;4408242;32;19975;-75
2024/03/21 06:00:25;;;;;;;;;;;;;;;;;;4408607;32;19933;-75
2024/03/21 06:02:50;;;;;;;;;;;;;;;;;;4407152;32;19946;-75
2024/03/21 06:05:15;;;;;;;;;;;;;;;;;;4411134;32;19941;-75
2024/03/21 06:07:41;;;;;;;;;;;;;;;;;;4410228;32;20275;-75
2024/03/21 06:10:06;;;;;;;;;;;;;;;;;;4408371;32;19942;-75
2024/03/21 06:12:31;;;;;;;;;;;;;;;;;;4406004;32;19945;-75
2024/03/21 06:14:56;;;;;;;;;;;;;;;;;;4408695;32;19945;-75
2024/03/21 06:17:21;;;;;;;;;;;;;;;;;;4422244;32;19941;-75
2024/03/21 06:19:46;;;;;;;;;;;;;;;;;;4423150;32;20373;-76
2024/03/21 06:22:11;;;;;;;;;;;;;;;;;;4422992;32;19933;-74
2024/03/21 06:24:36;;;;;;;;;;;;;;;;;;4421784;32;19986;-75
2024/03/21 06:27:01;;;;;;;;;;;;;;;;;;4408523;32;19945;-75
2024/03/21 06:29:28;;;;;;;;;;;;;;;;;;4422790;32;19953;-75
2024/03/21 06:31:53;;;;;;;;;;;;;;;;;;4421011;32;19944;-74
2024/03/21 06:34:18;;;;;;;;;;;;;;;;;;4407771;32;19971;-74
2024/03/21 06:36:43;;;;;;;;;;;;;;;;;;4422999;32;20448;-75
2024/03/21 06:39:11;;;;;;;;;;;;;;;;;;4423042;32;20000;-75
2024/03/21 06:41:36;;;;;;;;;;;;;;;;;;4407962;32;19940;-75
2024/03/21 06:44:01;;;;;;;;;;;;;;;;;;4419084;32;19973;-74
2024/03/21 06:46:26;;;;;;;;;;;;;;;;;;4406833;32;19975;-75
2024/03/21 06:48:51;;;;;;;;;;;;;;;;;;4392159;32;19961;-75
2024/03/21 06:51:16;;;;;;;;;;;;;;;;;;4417585;32;19957;-74
2024/03/21 06:53:41;;;;;;;;;;;;;;;;;;4422264;32;19937;-75
2024/03/21 06:56:06;;;;;;;;;;;;;;;;;;4421158;32;19937;-75
2024/03/21 06:58:34;;;;;;;;;;;;;;;;;;4422399;32;19975;-75
2024/03/21 07:00:59;;;;;;;;;;;;;;;;;;4420566;32;20004;-75
2024/03/21 07:03:24;;;;;;;;;;;;;;;;;;4421464;32;20004;-75
2024/03/21 07:05:49;;;;;;;;;;;;;;;;;;4407241;32;20309;-75
2024/03/21 07:08:14;;;;;;;;;;;;;;;;;;4420823;32;20287;-73
2024/03/21 07:10:40;;;;;;;;;;;;;;;;;;4421138;32;20321;-74
2024/03/21 07:13:05;;;;;;;;;;;;;;;;;;4404751;32;20324;-75
2024/03/21 07:15:30;;;;;;;;;;;;;;;;;;4395228;32;19974;-75
2024/03/21 07:17:55;;;;;;;;;;;;;;;;;;4419694;32;19994;-75
2024/03/21 07:20:22;;;;;;;;;;;;;;;;;;4407205;32;19975;-74
2024/03/21 07:22:47;;;;;;;;;;;;;;;;;;4422214;32;20269;-75
2024/03/21 07:25:12;;;;;;;;;;;;;;;;;;4406741;32;20273;-75
2024/03/21 07:27:38;;;;;;;;;;;;;;;;;;4406632;32;19944;-75
2024/03/21 07:30:08;;;;;;;;;;;;;;;;;;4420391;32;19945;-75
2024/03/21 07:32:33;;;;;;;;;;;;;;;;;;4407808;32;19937;-75
2024/03/21 07:34:58;;;;;;;;;;;;;;;;;;4406660;32;19952;-75
2024/03/21 07:37:23;;;;;;;;;;;;;;;;;;4422401;32;19993;-74
2024/03/21 07:39:48;;;;;;;;;;;;;;;;;;4420806;32;19944;-75
2024/03/21 07:42:13;;;;;;;;;;;;;;;;;;4406778;32;19934;-75
2024/03/21 07:44:38;;;;;;;;;;;;;;;;;;4420420;32;20359;-75
2024/03/21 07:47:04;;;;;;;;;;;;;;;;;;4421355;32;19937;-75
2024/03/21 07:49:29;;;;;;;;;;;;;;;;;;4420712;32;19976;-75
2024/03/21 07:52:00;;;;;;;;;;;;;;;;;;4407202;32;19949;-76
2024/03/21 07:54:25;;;;;;;;;;;;;;;;;;4407792;32;20261;-76
2024/03/21 07:56:50;;;;;;;;;;;;;;;;;;4422531;32;19948;-79
2024/03/21 07:59:15;;;;;;;;;;;;;;;;;;4422665;32;19937;-78
2024/03/21 08:01:40;;;;;;;;;;;;;;;;;;4421187;32;19992;-77
2024/03/21 08:04:07;;;;;;;;;;;;;;;;;;4422179;32;19937;-78
2024/03/21 08:06:32;;;;;;;;;;;;;;;;;;4407007;32;19978;-78
2024/03/21 08:08:57;;;;;;;;;;;;;;;;;;4418828;32;20049;-76
2024/03/21 08:11:23;;;;;;;;;;;;;;;;;;4407622;32;19945;-76
2024/03/21 08:13:48;;;;;;;;;;;;;;;;;;4425505;32;19952;-76
2024/03/21 08:16:13;;;;;;;;;;;;;;;;;;4408990;32;19971;-75
2024/03/21 08:18:38;;;;;;;;;;;;;;;;;;4409983;32;20413;-76
2024/03/21 08:21:04;;;;;;;;;;;;;;;;;;4405490;32;19937;-75
2024/03/21 08:23:29;;;;;;;;;;;;;;;;;;4411514;32;19999;-77
2024/03/21 08:25:54;;;;;;;;;;;;;;;;;;4406584;32;19988;-76
2024/03/21 08:28:19;;;;;;;;;;;;;;;;;;4407856;32;20321;-75
2024/03/21 08:30:47;;;;;;;;;;;;;;;;;;4421230;32;19941;-76
2024/03/21 08:33:15;;;;;;;;;;;;;;;;;;4420282;32;19996;-76
2024/03/21 08:35:41;;;;;;;;;;;;;;;;;;4421808;32;19951;-75
2024/03/21 08:38:06;;;;;;;;;;;;;;;;;;4406537;32;19937;-73
2024/03/21 08:40:31;;;;;;;;;;;;;;;;;;4406332;32;19937;-75
2024/03/21 08:42:56;;;;;;;;;;;;;;;;;;4407267;32;19948;-76
2024/03/21 08:45:23;;;;;;;;;;;;;;;;;;4407350;32;20343;-75
2024/03/21 08:47:48;;;;;;;;;;;;;;;;;;4406747;32;19961;-77
2024/03/21 08:50:13;;;;;;;;;;;;;;;;;;4392208;32;19949;-75
2024/03/21 08:52:38;;;;;;;;;;;;;;;;;;4408338;32;19977;-75
2024/03/21 08:55:04;;;;;;;;;;;;;;;;;;4408597;32;19973;-76
2024/03/21 08:57:31;;;;;;;;;;;;;;;;;;4410739;32;19999;-75
2024/03/21 08:59:56;;;;;;;;;;;;;;;;;;4408294;32;19933;-74
2024/03/21 09:02:21;;;;;;;;;;;;;;;;;;4415528;32;19987;-76
2024/03/21 09:04:47;;;;;;;;;;;;;;;;;;4411055;32;19948;-76
2024/03/21 09:07:12;;;;;;;;;;;;;;;;;;4399012;32;19937;-76
2024/03/21 09:09:37;;;;;;;;;;;;;;;;;;4409127;32;19957;-77
2024/03/21 09:12:02;;;;;;;;;;;;;;;;;;4394449;32;20361;-77
2024/03/21 09:14:27;;;;;;;;;;;;;;;;;;4408692;32;19995;-76
2024/03/21 09:16:52;;;;;;;;;;;;;;;;;;4395627;32;19956;-76
2024/03/21 09:19:17;;;;;;;;;;;;;;;;;;4394303;32;19986;-76
2024/03/21 09:21:42;;;;;;;;;;;;;;;;;;4394126;32;19945;-76
2024/03/21 09:24:08;;;;;;;;;;;;;;;;;;4408348;32;19938;-76
2024/03/21 09:26:34;;;;;;;;;;;;;;;;;;4395329;32;19949;-77
2024/03/21 09:28:59;;;;;;;;;;;;;;;;;;4393691;32;20381;-76
2024/03/21 09:31:24;;;;;;;;;;;;;;;;;;4393645;32;20271;-77
2024/03/21 09:33:49;;;;;;;;;;;;;;;;;;4407745;32;19993;-76
2024/03/21 09:36:14;;;;;;;;;;;;;;;;;;4393442;32;19957;-75
2024/03/21 09:38:40;;;;;;;;;;;;;;;;;;4408355;32;19965;-77
2024/03/21 09:41:06;;;;;;;;;;;;;;;;;;4417528;32;19976;-76
2024/03/21 09:43:31;;;;;;;;;;;;;;;;;;4407361;32;19971;-76
2024/03/21 09:45:56;;;;;;;;;;;;;;;;;;4420615;32;20004;-75
2024/03/21 09:48:21;;;;;;;;;;;;;;;;;;4400069;32;20321;-76
2024/03/21 09:50:46;;;;;;;;;;;;;;;;;;4402593;32;19941;-75
2024/03/21 09:53:12;;;;;;;;;;;;;;;;;;4408567;32;19978;-75
2024/03/21 09:55:37;;;;;;;;;;;;;;;;;;4421592;32;20200;-76
2024/03/21 09:58:02;;;;;;;;;;;;;;;;;;4422351;32;19941;-76
2024/03/21 10:00:27;;;;;;;;;;;;;;;;;;4422081;32;20303;-76
2024/03/21 10:02:52;;;;;;;;;;;;;;;;;;4421587;32;19984;-76
2024/03/21 10:05:17;;;;;;;;;;;;;;;;;;4406894;32;19952;-77
2024/03/21 10:07:42;;;;;;;;;;;;;;;;;;4407811;32;20377;-75
2024/03/21 10:10:07;;;;;;;;;;;;;;;;;;4405870;32;19952;-76
2024/03/21 10:12:33;;;;;;;;;;;;;;;;;;4406619;32;19934;-76
2024/03/21 10:14:58;;;;;;;;;;;;;;;;;;4406888;32;19934;-75
2024/03/21 10:17:23;;;;;;;;;;;;;;;;;;4406578;32;20041;-76
2024/03/21 10:19:48;;;;;;;;;;;;;;;;;;4410774;32;19961;-77
2024/03/21 10:22:13;;;;;;;;;;;;;;;;;;4409206;32;20004;-76
2024/03/21 10:24:38;;;;;;;;;;;;;;;;;;4408134;32;19989;-76
2024/03/21 10:27:03;;;;;;;;;;;;;;;;;;4408018;32;19948;-75
2024/03/21 10:29:28;;;;;;;;;;;;;;;;;;4422766;32;19959;-75
2024/03/21 10:31:54;;;;;;;;;;;;;;;;;;4423154;32;20041;-75
2024/03/21 10:34:19;;;;;;;;;;;;;;;;;;4407714;32;19969;-76
2024/03/21 10:36:44;;;;;;;;;;;;;;;;;;4405882;32;19997;-76
2024/03/21 10:39:10;;;;;;;;;;;;;;;;;;4406997;32;19980;-76
2024/03/21 10:41:35;;;;;;;;;;;;;;;;;;4406834;32;20098;-75
2024/03/21 10:44:00;;;;;;;;;;;;;;;;;;4394811;32;19988;-76
2024/03/21 10:46:27;;;;;;;;;;;;;;;;;;4407614;32;19938;-75
2024/03/21 10:48:52;;;;;;;;;;;;;;;;;;4407495;32;19947;-76
2024/03/21 10:51:17;;;;;;;;;;;;;;;;;;4421426;32;19941;-75
2024/03/21 10:53:42;;;;;;;;;;;;;;;;;;4401459;32;19948;-76
2024/03/21 10:56:11;;;;;;;;;;;;;;;;;;4394122;32;20001;-76
2024/03/21 10:58:36;;;;;;;;;;;;;;;;;;4392312;32;19988;-75
2024/03/21 11:01:01;;;;;;;;;;;;;;;;;;4394035;32;19975;-76
2024/03/21 11:03:26;;;;;;;;;;;;;;;;;;4392995;32;19937;-75
2024/03/21 11:05:51;;;;;;;;;;;;;;;;;;4392048;32;19972;-75
2024/03/21 11:08:16;;;;;;;;;;;;;;;;;;4407638;32;19937;-77
2024/03/21 11:10:41;;;;;;;;;;;;;;;;;;4406089;32;19952;-77
2024/03/21 11:13:06;;;;;;;;;;;;;;;;;;4391827;32;19933;-77
2024/03/21 11:15:31;;;;;;;;;;;;;;;;;;4406940;32;19948;-76
2024/03/21 11:17:56;;;;;;;;;;;;;;;;;;4407452;32;19956;-76
2024/03/21 11:20:22;;;;;;;;;;;;;;;;;;4392517;32;19937;-75
2024/03/21 11:22:47;;;;;;;;;;;;;;;;;;4391386;32;19985;-76
2024/03/21 11:25:12;;;;;;;;;;;;;;;;;;4405359;32;19937;-76
2024/03/21 11:27:37;;;;;;;;;;;;;;;;;;4406030;32;19941;-76
2024/03/21 11:30:02;;;;;;;;;;;;;;;;;;4391824;32;20293;-76
2024/03/21 11:32:27;;;;;;;;;;;;;;;;;;4391153;32;20357;-75
2024/03/21 11:34:52;;;;;;;;;;;;;;;;;;4390782;32;19957;-75
2024/03/21 11:37:17;;;;;;;;;;;;;;;;;;4405818;32;19937;-76
2024/03/21 11:39:43;;;;;;;;;;;;;;;;;;4408071;32;20057;-76
2024/03/21 11:42:08;;;;;;;;;;;;;;;;;;4407037;32;19933;-77
2024/03/21 11:44:33;;;;;;;;;;;;;;;;;;4393301;32;19942;-75
2024/03/21 11:46:58;;;;;;;;;;;;;;;;;;4396763;32;21258;-76
2024/03/21 11:49:23;;;;;;;;;;;;;;;;;;4420658;32;19972;-77
2024/03/21 11:51:48;;;;;;;;;;;;;;;;;;4406754;32;19937;-76
2024/03/21 11:54:13;;;;;;;;;;;;;;;;;;4406534;32;20354;-75
2024/03/21 11:56:38;;;;;;;;;;;;;;;;;;4408193;32;19945;-76
2024/03/21 11:59:04;;;;;;;;;;;;;;;;;;4406691;32;20269;-75
2024/03/21 12:01:29;;;;;;;;;;;;;;;;;;4422226;32;19977;-77
2024/03/21 12:03:54;;;;;;;;;;;;;;;;;;4407159;32;20048;-75
2024/03/21 12:06:19;;;;;;;;;;;;;;;;;;4420838;32;19972;-76
2024/03/21 12:08:46;;;;;;;;;;;;;;;;;;4420299;32;19977;-77
2024/03/21 12:11:12;;;;;;;;;;;;;;;;;;4420156;32;19940;-76
2024/03/21 12:13:37;;;;;;;;;;;;;;;;;;4406792;32;19952;-76
2024/03/21 12:16:02;;;;;;;;;;;;;;;;;;4421906;32;19933;-76
2024/03/21 12:18:30;;;;;;;;;;;;;;;;;;4405532;32;19941;-76
2024/03/21 12:20:56;;;;;;;;;;;;;;;;;;4406250;32;19957;-76
2024/03/21 12:25:03;;;;;;;11.40;3.22;;;;;;;;;;4444723;32;20562;-76
2024/03/21 12:27:29;;;;;;;3.90;2.42;;;;;;;;;;4428723;32;20042;-76
2024/03/21 12:29:55;;;;;;;8.77;3.55;;;;;;;;;;4419052;32;20064;-76
2024/03/21 12:32:20;;;;;;;12.48;3.22;;;;;;;;;;4414588;32;20102;-75
2024/03/21 12:34:45;;;;;;;11.63;3.33;;;;;;;;;;4414600;32;20085;-76
2024/03/21 12:37:13;;;;;;;;;;;;;;;;;;4415635;32;20068;-76
2024/03/21 12:39:42;;;;;;;6.43;3.00;;;;;;;;;;4415764;32;19949;-74
2024/03/21 12:42:11;;;;;;;5.03;3.20;;;;;;;;;;4416420;32;20398;-75
2024/03/21 12:44:39;;;;;;;6.32;2.85;;;;;;;;;;4415503;32;20025;-77
2024/03/21 12:47:05;;;;;;;8.77;3.53;;;;;;;;;;4415421;32;20394;-77
2024/03/21 12:49:30;;;;;;;8.18;3.87;;;;;;;;;;4415954;32;20311;-74
2024/03/21 12:51:55;;;;;;;5.32;3.22;;;;;;;;;;4415554;32;20065;-76
2024/03/21 12:54:20;;;;;;;8.82;3.83;;;;;;;;;;4429729;32;20039;-74
2024/03/21 12:56:46;;;;;;;11.10;3.87;;;;;;;;;;4430073;32;20042;-76
2024/03/21 12:59:11;;;;;;;6.45;4.37;;;;;;;;;;4431389;32;20353;-74
2024/03/21 13:01:36;;;;;;;;;;;;;;;;;;4430463;32;20054;-76
2024/03/21 13:04:01;;;;;;;8.50;6.68;;;;;;;;;;4419669;32;20335;-74
2024/03/21 13:06:26;;;;;;;9.68;7.30;;;;;;;;;;4415520;32;20038;-73
2024/03/21 13:08:52;;;;;;;8.90;6.03;;;;;;;;;;4414974;32;20084;-71
2024/03/21 13:11:17;;;;;;;7.40;5.70;;;;;;;;;;4415667;32;20046;-74
2024/03/21 13:13:43;;;;;;;6.65;5.60;;;;;;;;;;4415974;32;20027;-74
2024/03/21 13:16:08;;;;;;;11.15;7.40;;;;;;;;;;4415089;32;20023;-74
2024/03/21 13:18:33;;;;;;;;;;;;;;;;;;4415605;32;20046;-75
2024/03/21 13:20:58;;;;;;;8.02;6.47;;;;;;;;;;4416121;32;19938;-77
2024/03/21 13:23:23;;;;;;;;;;;;;;;;;;4430872;32;20133;-75
2024/03/21 13:25:48;;;;;;;9.57;7.20;;;;;;;;;;4445930;32;19952;-75
2024/03/21 13:28:14;;;;;;;9.63;7.80;;;;;;;;;;4446620;32;20026;-75
2024/03/21 13:30:39;;;;;;;10.50;9.25;;;;;;;;;;4446325;32;20025;-75
2024/03/21 13:33:04;;;;;;;18.62;11.82;;;;;;;;;;4446147;32;20022;-74
2024/03/21 13:35:30;;;;;;;20.20;13.70;;;;;;;;;;4438929;32;20513;-72
2024/03/21 13:37:55;;;;;;;20.35;15.68;;;;;;;;;;4435061;32;20057;-78
2024/03/21 13:40:21;;;;;;;18.73;15.95;;;;;;;;;;4421039;32;20042;-75
2024/03/21 13:42:47;;;;;;;20.67;15.02;;;;;;;;;;4419753;32;20500;-76
2024/03/21 13:45:12;;;;;;;20.58;16.40;;;;;;;;;;4420250;32;20058;-75
2024/03/21 13:47:38;;;;;;;22.00;18.95;;;;;;;;;;4427717;32;20022;-74
2024/03/21 13:50:05;;;;;;;24.37;18.02;;;;;;;;;;4435876;32;20068;-76
2024/03/21 13:52:31;;;;;;;22.15;19.23;;;;;;;;;;4430353;32;20491;-75
2024/03/21 13:54:59;;;;;;;20.55;18.45;;;;;;;;;;4419967;32;20068;-76
2024/03/21 13:57:25;;;;;;;20.58;17.70;;;;;;;;;;4420098;32;20034;-75
2024/03/21 13:59:50;;;;;;;22.25;16.75;;;;;;;;;;4420410;32;20410;-74
2024/03/21 14:02:15;;;;;;;18.75;16.30;;;;;;;;;;4431603;32;20145;-73
2024/03/21 14:04:40;;;;;;;17.15;15.43;;;;;;;;;;4435548;32;20112;-74
2024/03/21 14:07:06;;;;;;;17.45;14.82;;;;;;;;;;4435357;32;20017;-74
2024/03/21 14:09:31;;;;;;;18.85;13.73;;;;;;;;;;4435631;32;20029;-74
2024/03/21 14:11:56;;;;;;;15.82;12.95;;;;;;;;;;4434946;32;20135;-74
2024/03/21 14:14:21;;;;;;;14.65;13.10;;;;;;;;;;4434163;32;20071;-73
2024/03/21 14:16:46;;;;;;;16.10;11.50;;;;;;;;;;4433795;32;20146;-73
2024/03/21 14:19:12;;;;;;;14.18;10.02;;;;;;;;;;4433212;32;20060;-74
2024/03/21 14:21:37;;;;;;;12.77;11.35;;;;;;;;;;4433249;32;20049;-75
2024/03/21 14:24:03;;;;;;;14.55;10.15;;;;;;;;;;4433658;32;20049;-74
2024/03/21 14:26:28;;;;;;;9.27;7.70;;;;;;;;;;4432714;32;20022;-74
2024/03/21 14:28:53;;;;;;;11.38;6.85;;;;;;;;;;4433681;32;20041;-75
2024/03/21 14:31:22;;;;;;;10.45;6.80;;;;;;;;;;4434994;32;20058;-74
2024/03/21 14:33:47;;;;;;;11.90;7.55;;;;;;;;;;4434942;32;20029;-74
2024/03/21 14:36:13;;;;;;;9.13;6.65;;;;;;;;;;4435831;32;20485;-74
2024/03/21 14:38:39;;;;;;;9.30;6.45;;;;;;;;;;4435322;32;20041;-72
2024/03/21 14:41:04;;;;;;;8.45;6.35;;;;;;;;;;4434374;32;20090;-72
2024/03/21 14:43:29;;;;;;;11.25;6.75;;;;;;;;;;4435748;32;20080;-74
2024/03/21 14:45:54;;;;;;;12.25;6.93;;;;;;;;;;4434542;32;20410;-76
2024/03/21 14:48:20;;;;;;;10.40;6.90;;;;;;;;;;4434859;32;20463;-74
2024/03/21 14:50:48;;;;;;;17.02;7.20;;;;;;;;;;4435255;32;20457;-74
2024/03/21 14:53:13;;;;;;;11.07;7.07;;;;;;;;;;4434886;32;20060;-75
2024/03/21 14:55:38;;;;;;;7.53;6.10;;;;;;;;;;4435178;32;20030;-77
2024/03/21 14:58:03;;;;;;;11.82;6.53;;;;;;;;;;4434670;32;20413;-74
2024/03/21 15:00:31;;;;;;;8.98;6.82;;;;;;;;;;4434098;32;20064;-73
2024/03/21 15:02:56;;;;;;;7.30;6.60;;;;;;;;;;4435329;32;20380;-76
2024/03/21 15:05:23;;;;;;;12.88;7.62;;;;;;;;;;4435424;32;20402;-75
2024/03/21 15:07:48;;;;;;;11.02;7.47;;;;;;;;;;4434627;32;20033;-78
2024/03/21 15:10:14;;;;;;;10.95;8.20;;;;;;;;;;4434489;32;20052;-75
2024/03/21 15:12:40;;;;;;;13.00;8.32;;;;;;;;;;4435289;32;20060;-73
2024/03/21 15:15:07;;;;;;;9.68;8.23;;;;;;;;;;4434700;32;20094;-74
2024/03/21 15:17:33;;;;;;;9.98;8.65;;;;;;;;;;4434910;32;20048;-76
2024/03/21 15:19:58;;;;;;;10.75;8.70;;;;;;;;;;4435233;32;20056;-74
2024/03/21 15:22:24;;;;;;;13.40;9.55;;;;;;;;;;4434610;32;20036;-75
2024/03/21 15:24:52;;;;;;;12.00;9.52;;;;;;;;;;4434626;32;20049;-74
2024/03/21 15:27:17;;;;;;;11.75;8.00;;;;;;;;;;4430112;32;20026;-75
2024/03/21 15:29:48;;;;;;;11.18;7.65;;;;;;;;;;4433779;32;20486;-75
2024/03/21 15:32:13;;;;;;;13.02;7.85;;;;;;;;;;4435036;32;20053;-74
2024/03/21 15:34:39;;;;;;;10.05;6.70;;;;;;;;;;4434297;32;20433;-71
2024/03/21 15:37:04;;;;;;;;;;;;;;;;;;4433728;32;20366;-74
2024/03/21 15:39:33;;;;;;;9.50;6.40;;;;;;;;;;4434418;32;19955;-74
2024/03/21 15:41:58;;;;;;;7.80;6.37;;;;;;;;;;4420468;32;20056;-73
2024/03/21 15:44:24;;;;;;;13.00;5.80;;;;;;;;;;4434575;32;20038;-78
2024/03/21 15:46:49;;;;;;;;;;;;;;;;;;4434432;32;20026;-74
2024/03/21 15:49:14;;;;;;;8.10;5.93;;;;;;;;;;4433738;32;19929;-76
2024/03/21 15:51:39;;;;;;;7.15;6.07;;;;;;;;;;4433743;32;20037;-74
2024/03/21 15:54:05;;;;;;;9.05;6.22;;;;;;;;;;4434144;32;20062;-74
2024/03/21 15:56:30;;;;;;;8.02;5.93;;;;;;;;;;4433191;32;20048;-74
2024/03/21 15:58:55;;;;;;;6.53;5.57;;;;;;;;;;4434421;32;20057;-74
2024/03/21 16:01:20;;;;;;;7.32;5.55;;;;;;;;;;4434419;32;20072;-74
2024/03/21 16:03:45;;;;;;;8.88;5.95;;;;;;;;;;4433492;32;20095;-74
2024/03/21 16:06:13;;;;;;;;;;;;;;;;;;4434333;32;20349;-75
2024/03/21 16:08:38;;;;;;;;;;;;;;;;;;4434619;32;19937;-74